Latest Weather Observations for Southern Cross Airport

IDW60801

Issued at 10:23 am WST Tuesday 22 September 2020 (issued every 10 minutes, with the page automatically refreshed every 10 minutes)

About weather observations | Map of weather stations | Latest weather observations for WA | Other Formats
Station Details ID: 012320 Name: SOUTHERN CROSS AIRFIELD Lat: -31.24 Lon: 119.36 Height: 347.4 m
Data from the previous 72 hours. | See also: Recent months at Southern Cross Airport
Date/Time
WST
Temp
°C
App
Temp
°C
Dew
Point
°C
Rel
Hum
%
Delta-T
°C
Wind Press
QNH
hPa
Press
MSL
hPa
Rain since
9am
mm
Dir  Spd
km/h
Gust
km/h
Spd
kts
Gust
kts
22/10:00am 14.8 11.3 7.4 61 3.7 WSW 15 24 8 13 1024.8 1024.6 0.0
22/09:30am 13.9 9.6 7.2 64 3.3 S 19 24 10 13 1024.9 1024.7 0.0
22/09:00am 13.4 9.1 7.2 66 3.1 SSW 19 24 10 13 1024.8 1024.6 0.0
22/08:52am 13.1 8.8 7.8 70 2.7 SSW 20 28 11 15 1024.8 1024.6 0.0
22/08:30am 12.4 8.1 7.7 73 2.3 SW 20 30 11 16 1024.7 1024.5 0.0
22/08:00am 12.0 8.9 7.3 73 2.3 SSW 13 24 7 13 1024.4 1024.1 0.0
22/07:43am 9.9 8.1 5.5 74 2.0 WSW 4 9 2 5 1024.4 1024.1 0.0
22/07:30am 8.0 6.3 4.0 76 1.8 N 2 6 1 3 1024.2 1023.9 0.0
22/07:00am 5.5 3.7 1.2 74 1.7 CALM 0 0 0 0 1023.8 1023.5 0.0
22/06:30am 2.7 0.7 -0.2 81 1.1 CALM 0 0 0 0 1023.4 1023.2 0.0
22/06:00am 2.3 -0.9 -0.3 83 1.0 NNE 6 7 3 4 1022.9 1022.7 0.0
22/05:30am 2.5 0.5 -0.3 82 1.1 CALM 0 0 0 0 1022.6 1022.4 0.0
22/05:00am 2.7 -0.4 -0.1 82 1.1 NNW 6 7 3 4 1022.4 1022.2 0.0
22/04:30am 2.3 -1.1 -0.8 80 1.1 NNW 7 9 4 5 1022.0 1021.7 0.0
22/04:00am 3.1 1.0 -0.9 75 1.5 CALM 0 0 0 0 1021.7 1021.4 0.0
22/03:30am 3.3 0.1 -0.3 77 1.4 NW 6 7 3 4 1021.6 1021.3 0.0
22/03:00am 4.3 2.4 0.5 76 1.5 CALM 0 0 0 0 1021.6 1021.3 0.0
22/02:30am 3.7 0.5 -0.3 75 1.5 NW 6 7 3 4 1021.4 1021.1 0.0
22/02:00am 4.1 0.9 -0.3 73 1.7 NW 6 7 3 4 1021.5 1021.2 0.0
22/01:30am 4.6 1.4 -0.2 71 1.9 N 6 7 3 4 1021.6 1021.3 0.0
22/01:00am 5.0 2.3 0.0 70 1.9 S 4 6 2 3 1021.5 1021.2 0.0
22/12:30am 8.1 5.2 1.7 64 2.7 SE 6 7 3 4 1021.5 1021.2 0.0
22/12:00am 7.9 4.8 1.3 63 2.7 SE 7 9 4 5 1021.4 1021.1 0.0
 
Date/Time
WST
Temp
°C
App
Temp
°C
Dew
Point
°C
Rel
Hum
%
Delta-T
°C
Wind Press
QNH
hPa
Press
MSL
hPa
Rain since
9am
mm
Dir  Spd
km/h
Gust
km/h
Spd
kts
Gust
kts
21/11:30pm 8.0 5.8 1.2 62 2.8 SSW 2 6 1 3 1021.6 1021.3 0.0
21/11:00pm 9.3 5.8 1.5 58 3.3 S 9 11 5 6 1021.6 1021.3 0.0
21/10:30pm 10.0 6.5 1.4 55 3.6 SSW 9 13 5 7 1021.6 1021.3 0.0
21/10:00pm 10.6 6.4 1.7 54 3.8 SSW 13 15 7 8 1021.6 1021.3 0.0
21/09:30pm 9.4 5.4 0.6 54 3.6 SW 11 13 6 7 1021.8 1021.5 0.0
21/09:00pm 10.1 6.1 0.7 52 3.9 SW 11 13 6 7 1021.6 1021.3 0.0
21/08:30pm 9.9 6.3 0.5 52 3.9 WSW 9 11 5 6 1021.5 1021.2 0.0
21/08:00pm 10.1 5.7 0.4 51 4.0 WSW 13 15 7 8 1021.4 1021.1 0.0
21/07:30pm 11.5 7.1 0.3 46 4.7 WSW 13 15 7 8 1021.1 1020.8 0.0
21/07:00pm 12.9 8.5 0.3 42 5.3 WSW 13 15 7 8 1020.8 1020.5 0.0
21/06:30pm 14.4 10.0 0.3 38 6.1 WSW 13 19 7 10 1020.4 1020.2 0.0
21/06:00pm 15.0 10.2 0.1 36 6.4 WSW 15 22 8 12 1020.2 1020.0 0.0
21/05:30pm 16.2 11.0 -0.1 33 7.1 WSW 17 24 9 13 1020.0 1019.8 0.0
21/05:00pm 17.0 11.4 -0.2 31 7.5 SW 19 26 10 14 1019.8 1019.6 0.0
21/04:30pm 17.3 12.4 -0.4 30 7.7 WSW 15 26 8 14 1019.6 1019.4 0.0
21/04:00pm 17.2 11.4 -0.1 31 7.6 WSW 20 30 11 16 1019.7 1019.5 0.0
21/03:30pm 16.8 10.7 0.5 33 7.2 WSW 22 30 12 16 1019.5 1019.2 0.0
21/03:00pm 17.3 11.7 0.9 33 7.3 SW 20 32 11 17 1019.4 1019.1 0.0
21/02:30pm 17.1 11.7 1.5 35 7.1 W 19 28 10 15 1019.5 1019.2 0.0
21/02:00pm 16.7 11.2 2.0 37 6.7 SW 20 33 11 18 1019.7 1019.5 0.0
21/01:30pm 16.2 11.0 2.2 39 6.4 W 19 30 10 16 1019.9 1019.7 0.0
21/01:00pm 14.7 10.8 3.2 46 5.3 WSW 13 20 7 11 1020.0 1019.8 0.0
21/12:30pm 14.2 10.2 3.1 47 5.1 SW 13 20 7 11 1020.3 1020.1 0.0
21/12:00pm 13.8 8.6 3.6 50 4.7 SW 20 28 11 15 1020.8 1020.5 0.0
21/11:30am 12.5 7.5 3.5 54 4.1 SSW 19 24 10 13 1021.0 1020.7 0.0
21/11:00am 12.1 7.2 4.1 58 3.7 SW 19 30 10 16 1021.2 1020.9 0.0
21/10:30am 11.4 6.3 4.2 61 3.3 SW 20 30 11 16 1021.4 1021.1 0.0
21/10:00am 10.6 5.1 4.1 64 2.9 WSW 22 28 12 15 1021.4 1021.1 0.0
21/09:30am 10.3 5.4 4.2 66 2.8 SW 19 28 10 15 1021.4 1021.1 0.0
21/09:00am 9.6 3.7 3.8 67 2.6 SW 24 32 13 17 1021.4 1021.1 0.0
21/08:30am 9.3 2.6 3.9 69 2.4 SSW 28 35 15 19 1021.3 1021.0 0.0
21/08:00am 8.9 3.0 4.1 72 2.1 SW 24 33 13 18 1021.1 1020.8 0.0
21/07:30am 8.5 2.6 4.1 74 2.0 SW 24 32 13 17 1021.1 1020.8 0.0
21/07:00am 8.1 2.2 3.9 75 1.8 SW 24 33 13 18 1020.5 1020.3 0.0
21/06:30am 7.8 3.2 3.8 76 1.8 SW 17 26 9 14 1020.2 1020.0 0.0
21/06:00am 7.7 2.2 3.9 77 1.7 SW 22 32 12 17 1019.8 1019.6 0.0
21/05:30am 7.7 2.8 3.9 77 1.7 SW 19 32 10 17 1019.5 1019.2 0.0
21/05:09am 7.4 3.2 3.8 78 1.6 SW 15 19 8 10 1019.2 1018.9 0.0
21/05:00am 7.4 2.4 3.8 78 1.6 WSW 19 24 10 13 1019.2 1018.9 0.0
21/04:30am 7.4 2.2 3.8 78 1.6 SW 20 28 11 15 1019.0 1018.7 0.0
21/04:00am 7.2 2.6 3.8 79 1.5 SW 17 20 9 11 1018.9 1018.6 0.0
21/03:35am 7.0 2.4 3.6 79 1.5 WSW 17 24 9 13 1018.7 1018.4 0.0
21/03:30am 6.9 3.0 3.5 79 1.5 WSW 13 20 7 11 1018.6 1018.3 0.0
21/03:00am 5.9 2.7 2.9 81 1.3 SW 9 11 5 6 1018.7 1018.4 0.0
21/02:30am 6.0 2.3 2.5 78 1.5 WSW 11 17 6 9 1018.6 1018.3 0.0
21/02:00am 6.3 2.2 2.0 74 1.8 W 13 22 7 12 1018.5 1018.2 0.0
21/01:30am 6.5 2.3 1.8 72 1.9 WSW 13 17 7 9 1018.5 1018.2 0.0
21/01:00am 7.0 2.5 1.9 70 2.1 WSW 15 20 8 11 1018.5 1018.2 0.0
21/12:30am 7.2 3.0 1.5 67 2.4 WSW 13 19 7 10 1018.3 1018.0 0.0
21/12:00am 8.0 3.0 1.6 64 2.7 W 17 24 9 13 1018.4 1018.1 0.0
 
Date/Time
WST
Temp
°C
App
Temp
°C
Dew
Point
°C
Rel
Hum
%
Delta-T
°C
Wind Press
QNH
hPa
Press
MSL
hPa
Rain since
9am
mm
Dir  Spd
km/h
Gust
km/h
Spd
kts
Gust
kts
20/11:30pm 8.4 3.4 1.6 62 2.9 W 17 24 9 13 1018.4 1018.1 0.0
20/11:00pm 8.8 3.8 1.5 60 3.1 WSW 17 22 9 12 1018.5 1018.2 0.0
20/10:30pm 9.2 3.6 1.1 57 3.4 WSW 20 28 11 15 1018.5 1018.2 0.0
20/10:00pm 9.6 4.1 0.8 54 3.7 WSW 19 30 10 16 1018.4 1018.1 0.0
20/09:30pm 10.1 4.5 1.2 54 3.8 WSW 20 30 11 16 1018.4 1018.1 0.0
20/09:00pm 10.4 5.1 2.0 56 3.6 W 19 24 10 13 1018.3 1018.0 0.0
20/08:30pm 10.8 5.7 3.1 59 3.4 WSW 19 26 10 14 1018.0 1017.7 0.0
20/08:00pm 11.7 5.7 3.5 57 3.7 W 24 32 13 17 1017.5 1017.3 0.0
20/07:30pm 12.3 6.6 3.0 53 4.2 W 22 33 12 18 1017.0 1016.7 0.0
20/07:00pm 12.9 5.5 1.9 47 4.8 W 30 41 16 22 1016.4 1016.1 0.0
20/06:30pm 13.4 5.6 1.4 44 5.3 WSW 32 44 17 24 1016.0 1015.7 0.0
20/06:00pm 13.6 6.3 2.5 47 5.0 WSW 30 41 16 22 1015.7 1015.4 0.0
20/05:48pm 14.0 5.4 2.6 46 5.1 WSW 37 56 20 30 1015.6 1015.3 0.0
20/05:30pm 14.7 5.2 1.6 41 5.8 WSW 41 52 22 28 1015.2 1014.9 0.0
20/05:00pm 15.5 6.2 0.5 36 6.6 WSW 39 61 21 33 1014.5 1014.2 0.0
20/04:30pm 16.5 7.0 -0.7 31 7.4 W 39 57 21 31 1013.8 1013.5 0.0
20/04:00pm 16.3 6.8 -0.4 32 7.2 WSW 39 59 21 32 1013.3 1013.0 0.0
20/03:55pm 16.9 7.1 -0.3 31 7.5 WSW 41 59 22 32 1013.3 1013.0 0.0
20/03:30pm 15.9 5.6 -1.2 31 7.2 WSW 43 56 23 30 1013.2 1012.9 0.0
20/03:06pm 17.2 7.2 0.8 33 7.3 WSW 43 61 23 33 1012.8 1012.5 0.0
20/03:00pm 16.1 5.4 0.3 34 6.9 WSW 46 61 25 33 1012.7 1012.4 0.0
20/02:30pm 16.4 5.7 0.1 33 7.1 W 46 65 25 35 1012.6 1012.3 0.0
20/02:00pm 15.6 6.1 1.7 39 6.2 W 41 63 22 34 1012.9 1012.6 0.0
20/01:31pm 16.2 6.3 2.9 41 6.2 W 44 63 24 34 1012.8 1012.5 0.0
20/01:30pm 16.3 6.6 3.0 41 6.2 W 43 59 23 32 1012.9 1012.6 0.0
20/01:00pm 16.0 5.9 0.6 35 6.8 W 43 61 23 33 1012.9 1012.6 0.0
20/12:30pm 16.5 6.9 1.4 36 6.8 WSW 41 59 22 32 1013.1 1012.8 0.0
20/12:00pm 14.9 4.8 0.4 37 6.3 W 43 63 23 34 1013.6 1013.3 0.0
20/11:35am 13.3 4.6 1.9 46 5.0 W 37 61 20 33 1013.9 1013.6 0.0
20/11:30am 13.4 5.1 2.3 47 5.0 W 35 46 19 25 1013.9 1013.6 0.0
20/11:03am 12.5 4.7 2.7 51 4.4 W 33 52 18 28 1014.1 1013.8 0.0
20/11:00am 12.5 4.2 2.4 50 4.5 W 35 52 19 28 1014.2 1013.9 0.0
20/10:30am 12.1 3.4 2.0 50 4.4 W 37 57 20 31 1014.1 1013.8 0.0
20/10:00am 13.0 3.2 2.3 48 4.8 W 43 57 23 31 1014.1 1013.8 0.0
20/09:50am 12.2 3.9 2.4 51 4.3 W 35 54 19 29 1014.2 1013.9 0.0
20/09:30am 11.3 2.8 2.9 56 3.7 W 37 50 20 27 1014.3 1014.0 0.0
20/09:00am 10.9 3.4 3.2 59 3.4 W 32 52 17 28 1014.2 1013.9 0.2
20/08:59am 10.7 2.9 3.0 59 3.4 W 33 52 18 28 1014.2 1013.9 0.2
20/08:30am 10.6 2.1 3.4 61 3.2 W 37 52 20 28 1014.1 1013.8 0.2
20/08:00am 9.3 1.7 2.9 64 2.8 W 32 50 17 27 1014.0 1013.7 0.2
20/07:30am 8.4 0.9 3.3 70 2.2 WNW 32 50 17 27 1013.7 1013.4 0.2
20/07:29am 8.4 0.9 3.3 70 2.2 WNW 32 50 17 27 1013.7 1013.4 0.2
20/07:00am 7.5 1.1 3.2 74 1.9 WNW 26 39 14 21 1013.3 1013.0 0.2
20/06:30am 6.2 -0.2 3.0 80 1.4 WNW 26 35 14 19 1013.2 1012.9 0.2
20/06:00am 5.5 0.1 2.7 82 1.2 WNW 20 30 11 16 1012.8 1012.5 0.2
20/05:30am 5.5 -0.2 2.7 82 1.2 WNW 22 28 12 15 1012.7 1012.4 0.2
20/05:00am 5.6 0.2 2.4 80 1.3 WNW 20 28 11 15 1012.5 1012.2 0.2
20/04:30am 5.8 -0.4 1.9 76 1.6 WNW 24 32 13 17 1012.4 1012.1 0.2
20/04:00am 5.9 -0.3 2.0 76 1.6 W 24 33 13 18 1012.3 1012.0 0.2
20/03:30am 6.1 -0.1 2.2 76 1.6 W 24 35 13 19 1012.1 1011.7 0.2
20/03:00am 6.2 0.1 2.7 78 1.5 WNW 24 35 13 19 1012.0 1011.6 0.2
20/02:30am 6.4 0.3 2.5 76 1.6 W 24 32 13 17 1012.2 1011.8 0.2
20/02:00am 6.9 0.0 2.8 75 1.7 W 28 39 15 21 1012.3 1012.0 0.2
20/01:30am 7.1 1.2 3.7 79 1.5 W 24 33 13 18 1012.5 1012.2 0.2
20/01:00am 7.5 0.8 3.7 77 1.7 W 28 39 15 21 1012.7 1012.4 0.2
20/12:30am 7.5 0.6 4.6 82 1.3 W 30 44 16 24 1012.7 1012.4 0.2
20/12:00am 8.7 1.9 2.9 67 2.5 W 28 37 15 20 1012.4 1012.1 0.0
 
Date/Time
WST
Temp
°C
App
Temp
°C
Dew
Point
°C
Rel
Hum
%
Delta-T
°C
Wind Press
QNH
hPa
Press
MSL
hPa
Rain since
9am
mm
Dir  Spd
km/h
Gust
km/h
Spd
kts
Gust
kts
19/11:45pm 8.8 1.2 2.8 66 2.6 W 32 50 17 27 1012.2 1011.8 0.0
19/11:30pm 9.0 1.4 3.0 66 2.6 W 32 44 17 24 1012.2 1011.8 0.0
19/11:00pm 9.5 3.2 3.5 66 2.7 W 26 43 14 23 1012.1 1011.7 0.0
19/10:30pm 9.7 2.5 3.0 63 2.9 W 30 44 16 24 1011.9 1011.5 0.0
19/10:00pm 10.2 2.9 2.6 59 3.3 W 30 43 16 23 1011.7 1011.3 0.0
19/09:30pm 10.7 3.4 2.3 56 3.7 W 30 44 16 24 1011.7 1011.3 0.0
19/09:00pm 11.1 4.6 2.7 56 3.7 W 26 35 14 19 1011.7 1011.3 0.0
19/08:30pm 11.4 4.1 2.7 55 3.8 W 30 43 16 23 1011.4 1011.1 0.0
19/08:06pm 11.4 4.3 3.4 58 3.6 W 30 48 16 26 1011.4 1011.1 0.0
19/08:00pm 11.3 3.8 3.3 58 3.6 W 32 48 17 26 1011.3 1011.0 0.0
19/07:30pm 12.0 2.4 3.3 55 3.9 W 43 63 23 34 1011.0 1010.7 0.0
19/07:00pm 14.1 6.5 3.0 47 5.1 W 32 50 17 27 1009.8 1009.5 0.0
19/06:50pm 14.3 6.2 3.2 47 5.1 WSW 35 54 19 29 1009.5 1009.1 0.0
19/06:30pm 15.5 6.4 1.6 39 6.2 W 39 54 21 29 1008.9 1008.5 0.0
19/06:21pm 15.7 7.6 0.7 36 6.6 W 33 52 18 28 1008.7 1008.3 0.0
19/06:00pm 15.9 7.9 0.1 34 6.9 W 32 46 17 25 1008.3 1008.0 0.0
19/05:30pm 16.8 8.2 0.0 32 7.4 W 35 54 19 29 1008.0 1007.7 0.0
19/05:14pm 17.4 8.5 1.0 33 7.4 W 37 57 20 31 1007.6 1007.3 0.0
19/05:00pm 17.4 9.4 1.4 34 7.3 W 33 44 18 24 1007.5 1007.2 0.0
19/04:44pm 18.2 8.2 0.8 31 7.8 W 43 61 23 33 1007.2 1006.8 0.0
19/04:30pm 18.5 8.8 0.6 30 8.1 W 41 56 22 30 1007.1 1006.7 0.0
19/04:00pm 18.5 9.4 1.9 33 7.7 W 39 57 21 31 1007.0 1006.6 0.0
19/03:30pm 18.9 9.8 3.9 37 7.2 WNW 41 59 22 32 1006.8 1006.4 0.0
19/03:00pm 18.5 10.1 5.4 42 6.5 WNW 39 57 21 31 1006.8 1006.4 0.0
19/02:30pm 18.6 11.5 8.0 50 5.5 WNW 35 54 19 29 1006.8 1006.4 0.0
19/02:26pm 18.3 11.6 8.0 51 5.4 WNW 33 54 18 29 1006.9 1006.5 0.0
19/02:00pm 18.0 10.7 8.6 54 5.0 W 37 52 20 28 1006.9 1006.5 0.0
19/01:30pm 18.3 11.9 9.4 56 4.8 W 33 43 18 23 1006.9 1006.5 0.0
19/01:00pm 17.3 11.6 9.7 61 4.1 W 30 41 16 22 1007.0 1006.6 0.0
19/12:30pm 16.3 10.7 10.2 67 3.3 W 30 39 16 21 1007.1 1006.7 0.0
19/12:00pm 16.2 10.1 10.3 68 3.2 W 33 43 18 23 1007.2 1006.8 0.0
19/11:30am 18.6 11.6 8.6 52 5.3 W 35 48 19 26 1006.9 1006.5 0.0
19/11:09am 19.5 12.7 7.6 46 6.2 W 33 52 18 28 1006.9 1006.5 0.0
19/11:00am 19.4 12.2 7.5 46 6.2 W 35 48 19 26 1007.0 1006.6 0.0
19/10:30am 19.9 13.0 8.9 49 5.9 WNW 35 50 19 27 1007.3 1007.0 0.0

Other formats

Comma delimited format used in spreadsheet applications
http://www.bom.gov.au/fwo/IDW60801/IDW60801.95634.axf

JavaScript Object Notation format (JSON) in row-major order
http://www.bom.gov.au/fwo/IDW60801/IDW60801.95634.json

Data quality

Most of these data are generated automatically and are frequently updated. Quality checks on data are not normally performed. It is possible for incorrect values to appear. Refer to information at About Latest Weather Observations and please check the disclaimer before using these data.